Anadarko, Oklahoma
Current Conditions -  °F | °C
As of 10:15 AM on Monday 22 Dec 2014 (Local Time) from KCHK Reporting Station
Clear Clear  
Wind Chill:   Ceiling: Unl
Heat Index:   Visibility: 10mi
Dew Point:   Wind: 12mph
Humidity: 87%   Direction: 310°NW
Pressure: 29.64"   Gusts: NA
Location:  35.07°N, 98.24°W
Report Text: KCHK 221615Z AUTO 31010KT 10SM CLR 09/07 A2964 RMK AO2
Loading
Personal Weather Stations






























Interactive Weather Map New forecast layout! Learn more

10-Day Weather Forecast

Advertisements
Track Severe Weather on mobile